Terminal Aerodrome Forecast
Issued by NWS

Home | Current Version | Previous Version | Text Only | Print | Product List | Glossary On
Versions: 1 2 3 4 5 6 7 8 9 10 11 12 13 14 15 16 17 18 19 20 21 22 23 24 25 26 27 28 29 30
000
FTUS43 KDVN 141246 AAA
TAFCID
TAF AMD
KCID 141246Z 1413/1512 08009KT 3SM BR OVC006
      TEMPO 1413/1414 1SM BR BKN003
     FM141500 10009KT 3SM -SHRA BR VCTS OVC008CB
     FM141800 13008KT 5SM -SHRA VCTS BKN015CB
     FM142100 17011KT P6SM BKN025
     FM150000 20014KT P6SM VCTS BKN050CB
      TEMPO 1500/1503 P6SM -TSRA BKN050CB
     FM150400 25018G26KT P6SM OVC025=

USA.gov is the U.S. government's official web portal to all federal, state and local government web resources and services.